Time;durP1;ratioP1;P1;durP2;ratioP2;P2;SDS_P1;SDS_P2;PMS_P1;PMS_P2;Temp;Humidity;BMP_temperature;BMP_pressure;BME280_temperature;BME280_humidity;BME280_pressure;Samples;Min_cycle;Max_cycle;Signal;HPM_P1;HPM_P2
2022/04/27 00:00:10;;;;;;;0.60;0.60;;;;;;;;;;5095328;28;20599;-68
2022/04/27 00:02:40;;;;;;;0.70;0.60;;;;;;;;;;5094023;28;20440;-67
2022/04/27 00:05:07;;;;;;;0.70;0.60;;;;;;;;;;5095707;28;20448;-67
2022/04/27 00:07:34;;;;;;;0.67;0.60;;;;;;;;;;5077289;28;20560;-69
2022/04/27 00:10:01;;;;;;;0.70;0.70;;;;;;;;;;5095230;28;20468;-69
2022/04/27 00:12:29;;;;;;;0.70;0.60;;;;;;;;;;5093674;28;20548;-68
2022/04/27 00:14:57;;;;;;;0.70;0.60;;;;;;;;;;5094299;28;20446;-68
2022/04/27 00:17:24;;;;;;;0.70;0.60;;;;;;;;;;5094461;28;20434;-68
2022/04/27 00:19:51;;;;;;;0.70;0.60;;;;;;;;;;5093887;28;20445;-68
2022/04/27 00:22:18;;;;;;;0.60;0.60;;;;;;;;;;5095026;28;20499;-69
2022/04/27 00:24:45;;;;;;;0.60;0.60;;;;;;;;;;5095099;28;20667;-69
2022/04/27 00:27:22;;;;;;;0.60;0.60;;;;;;;;;;5094727;28;20455;-68
2022/04/27 00:29:51;;;;;;;0.67;0.60;;;;;;;;;;5077044;28;20639;-69
2022/04/27 00:32:18;;;;;;;0.60;0.60;;;;;;;;;;5094480;28;20438;-69
2022/04/27 00:34:45;;;;;;;0.60;0.60;;;;;;;;;;5077100;28;20522;-69
2022/04/27 00:37:12;;;;;;;0.60;0.50;;;;;;;;;;5094739;28;20448;-69
2022/04/27 00:39:39;;;;;;;0.60;0.50;;;;;;;;;;5093157;28;20492;-69
2022/04/27 00:42:13;;;;;;;0.80;0.80;;;;;;;;;;5094471;28;20444;-69
2022/04/27 00:44:43;;;;;;;0.70;0.60;;;;;;;;;;5077202;28;20443;-68
2022/04/27 00:47:17;;;;;;;0.60;0.60;;;;;;;;;;5093558;28;20476;-69
2022/04/27 00:49:45;;;;;;;0.60;0.60;;;;;;;;;;5094249;28;20417;-68
2022/04/27 00:52:14;;;;;;;1.13;1.13;;;;;;;;;;5093457;28;20470;-67
2022/04/27 00:55:10;;;;;;;0.60;0.60;;;;;;;;;;5092553;28;20441;-73
2022/04/27 00:57:39;;;;;;;0.60;0.60;;;;;;;;;;5092630;28;20435;-69
2022/04/27 01:00:10;;;;;;;0.70;0.60;;;;;;;;;;5075837;28;20806;-70
2022/04/27 01:02:42;;;;;;;0.60;0.60;;;;;;;;;;5076778;28;20446;-68
2022/04/27 01:05:16;;;;;;;0.60;0.50;;;;;;;;;;5075593;28;20443;-67
2022/04/27 01:07:43;;;;;;;0.60;0.53;;;;;;;;;;5092498;28;20543;-70
2022/04/27 01:10:11;;;;;;;0.60;0.60;;;;;;;;;;5092805;28;20992;-69
2022/04/27 01:12:41;;;;;;;0.60;0.60;;;;;;;;;;5093296;28;20450;-68
2022/04/27 01:15:28;;;;;;;0.60;0.60;;;;;;;;;;5092191;28;20454;-69
2022/04/27 01:17:57;;;;;;;0.60;0.60;;;;;;;;;;5079317;28;20449;-67
2022/04/27 01:20:35;;;;;;;0.93;0.93;;;;;;;;;;5092670;28;20850;-68
2022/04/27 01:23:06;;;;;;;0.70;0.60;;;;;;;;;;5091927;28;20442;-69
2022/04/27 01:25:48;;;;;;;0.60;0.60;;;;;;;;;;5076677;28;20454;-68
2022/04/27 01:28:19;;;;;;;0.60;0.60;;;;;;;;;;5073312;28;20478;-68
2022/04/27 01:30:59;;;;;;;0.60;0.60;;;;;;;;;;5072916;28;20520;-69
2022/04/27 01:33:29;;;;;;;0.70;0.60;;;;;;;;;;5083157;28;20442;-69
2022/04/27 01:36:00;;;;;;;0.60;0.60;;;;;;;;;;5092756;28;20542;-69
2022/04/27 01:38:33;;;;;;;0.70;0.70;;;;;;;;;;5073893;28;20478;-68
2022/04/27 01:41:00;;;;;;;0.70;0.60;;;;;;;;;;5093781;28;20787;-67
2022/04/27 01:43:30;;;;;;;0.70;0.70;;;;;;;;;;5093105;28;20988;-69
2022/04/27 01:45:57;;;;;;;0.70;0.60;;;;;;;;;;5094230;28;20461;-68
2022/04/27 01:48:29;;;;;;;0.70;0.60;;;;;;;;;;5093216;28;20450;-68
2022/04/27 01:50:57;;;;;;;0.60;0.60;;;;;;;;;;5092356;28;20489;-68
2022/04/27 01:56:15;;;;;;;0.60;0.60;;;;;;;;;;5092232;28;20447;-68
2022/04/27 01:58:48;;;;;;;0.60;0.60;;;;;;;;;;5092610;28;20442;-69
2022/04/27 02:01:25;;;;;;;0.60;0.60;;;;;;;;;;5092082;28;20977;-69
2022/04/27 02:03:57;;;;;;;0.60;0.50;;;;;;;;;;5076256;28;20779;-68
2022/04/27 02:06:29;;;;;;;0.70;0.60;;;;;;;;;;5092517;28;20447;-68
2022/04/27 02:08:59;;;;;;;0.60;0.60;;;;;;;;;;5092415;28;20541;-69
2022/04/27 02:11:38;;;;;;;0.60;0.60;;;;;;;;;;5092485;28;20470;-69
2022/04/27 02:14:06;;;;;;;0.70;0.70;;;;;;;;;;5091814;28;20552;-69
2022/04/27 02:16:37;;;;;;;0.70;0.60;;;;;;;;;;5092574;28;20787;-68
2022/04/27 02:19:09;;;;;;;0.63;0.60;;;;;;;;;;5095779;28;20446;-69
2022/04/27 02:21:36;;;;;;;0.77;0.77;;;;;;;;;;5096292;28;20507;-68
2022/04/27 02:24:05;;;;;;;0.60;0.60;;;;;;;;;;5096325;28;20450;-69
2022/04/27 02:26:33;;;;;;;0.60;0.60;;;;;;;;;;5097722;28;20448;-69
2022/04/27 02:29:08;;;;;;;0.60;0.50;;;;;;;;;;5097586;28;20428;-68
2022/04/27 02:31:35;;;;;;;0.60;0.60;;;;;;;;;;5095882;28;20467;-68
2022/04/27 02:34:03;;;;;;;0.60;0.60;;;;;;;;;;5095849;28;20430;-69
2022/04/27 02:36:30;;;;;;;0.60;0.60;;;;;;;;;;5095764;28;20465;-69
2022/04/27 02:38:58;;;;;;;1.00;0.90;;;;;;;;;;5095993;28;20442;-72
2022/04/27 02:41:31;;;;;;;0.60;0.60;;;;;;;;;;5079557;28;20442;-69
2022/04/27 02:44:01;;;;;;;0.60;0.60;;;;;;;;;;5095958;28;20459;-69
2022/04/27 02:46:29;;;;;;;0.60;0.60;;;;;;;;;;5096281;28;20465;-68
2022/04/27 02:51:51;;;;;;;0.70;0.70;;;;;;;;;;5077227;28;20485;-69
2022/04/27 02:54:23;;;;;;;0.70;0.60;;;;;;;;;;5071791;28;20434;-69
2022/04/27 02:57:00;;;;;;;0.63;0.60;;;;;;;;;;5095143;28;20507;-70
2022/04/27 02:59:30;;;;;;;0.60;0.60;;;;;;;;;;5096155;28;20441;-69
2022/04/27 03:01:58;;;;;;;0.60;0.60;;;;;;;;;;5095406;28;20469;-69
2022/04/27 03:04:28;;;;;;;0.60;0.60;;;;;;;;;;5097002;28;20469;-68
2022/04/27 03:06:55;;;;;;;0.63;0.60;;;;;;;;;;5078550;28;20807;-69
2022/04/27 03:09:23;;;;;;;0.63;0.60;;;;;;;;;;5094841;28;20503;-68
2022/04/27 03:11:50;;;;;;;0.60;0.60;;;;;;;;;;5093587;28;20474;-68
2022/04/27 03:14:39;;;;;;;0.70;0.60;;;;;;;;;;5094726;28;20461;-68
2022/04/27 03:17:07;;;;;;;0.70;0.60;;;;;;;;;;5094313;28;20453;-69
2022/04/27 03:19:33;;;;;;;0.70;0.60;;;;;;;;;;5090706;28;20443;-69
2022/04/27 03:22:00;;;;;;;0.70;0.60;;;;;;;;;;5094744;28;20506;-69
2022/04/27 03:24:28;;;;;;;0.70;0.60;;;;;;;;;;5077879;28;20438;-68
2022/04/27 03:27:05;;;;;;;0.67;0.60;;;;;;;;;;5095394;28;20480;-69
2022/04/27 03:29:32;;;;;;;0.70;0.70;;;;;;;;;;5094236;28;20446;-69
2022/04/27 03:32:04;;;;;;;0.60;0.60;;;;;;;;;;5094407;28;20484;-69
2022/04/27 03:34:37;;;;;;;0.70;0.70;;;;;;;;;;5073709;28;20475;-68
2022/04/27 03:37:05;;;;;;;0.70;0.63;;;;;;;;;;5073928;28;20809;-68
2022/04/27 03:39:31;;;;;;;0.65;0.60;;;;;;;;;;5090915;28;20446;-69
2022/04/27 03:42:13;;;;;;;0.77;0.70;;;;;;;;;;5090995;28;20677;-69
2022/04/27 03:44:44;;;;;;;0.70;0.70;;;;;;;;;;5092078;28;20241;-69
2022/04/27 03:47:13;;;;;;;0.85;0.85;;;;;;;;;;5094385;28;20305;-69
2022/04/27 03:49:41;;;;;;;0.70;0.60;;;;;;;;;;5093792;28;20287;-69
2022/04/27 03:52:08;;;;;;;0.70;0.70;;;;;;;;;;5093197;28;20208;-70
2022/04/27 03:54:35;;;;;;;0.70;0.60;;;;;;;;;;5093755;28;20223;-68
2022/04/27 03:57:03;;;;;;;0.70;0.60;;;;;;;;;;5077907;28;20272;-68
2022/04/27 03:59:30;;;;;;;0.60;0.60;;;;;;;;;;5094138;28;20198;-68
2022/04/27 04:01:58;;;;;;;0.70;0.60;;;;;;;;;;5093600;28;20180;-69
2022/04/27 04:04:26;;;;;;;0.70;0.70;;;;;;;;;;5093944;28;20747;-68
2022/04/27 04:06:54;;;;;;;0.60;0.60;;;;;;;;;;5093811;28;20276;-70
2022/04/27 04:09:22;;;;;;;0.70;0.70;;;;;;;;;;5093861;28;20192;-70
2022/04/27 04:11:49;;;;;;;0.60;0.60;;;;;;;;;;5093609;28;20249;-68
2022/04/27 04:14:16;;;;;;;0.70;0.60;;;;;;;;;;5095263;28;20200;-69
2022/04/27 04:16:53;;;;;;;0.63;0.60;;;;;;;;;;5094333;28;20998;-69
2022/04/27 04:19:44;;;;;;;0.70;0.60;;;;;;;;;;5086236;28;20258;-68
2022/04/27 04:22:31;;;;;;;0.60;0.60;;;;;;;;;;5086108;28;20283;-70
2022/04/27 04:30:47;;;;;;;0.60;0.60;;;;;;;;;;5094375;28;20194;-69
2022/04/27 04:33:38;;;;;;;0.60;0.60;;;;;;;;;;5086226;28;20235;-69
2022/04/27 04:36:10;;;;;;;0.70;0.70;;;;;;;;;;5092930;28;20699;-69
2022/04/27 04:38:39;;;;;;;0.70;0.60;;;;;;;;;;5093361;28;20520;-68
2022/04/27 04:41:09;;;;;;;0.60;0.60;;;;;;;;;;5089696;28;20238;-69
2022/04/27 04:43:51;;;;;;;0.60;0.55;;;;;;;;;;5091368;28;20193;-70
2022/04/27 04:46:25;;;;;;;0.70;0.60;;;;;;;;;;5090773;28;20203;-69
2022/04/27 04:49:06;;;;;;;0.60;0.60;;;;;;;;;;5091985;28;20444;-69
2022/04/27 04:51:37;;;;;;;0.60;0.60;;;;;;;;;;5093324;28;20504;-69
2022/04/27 04:54:30;;;;;;;1.40;1.30;;;;;;;;;;5091821;28;20528;-69
2022/04/27 04:57:16;;;;;;;0.70;0.70;;;;;;;;;;5093604;28;20703;-70
2022/04/27 04:59:52;;;;;;;0.60;0.60;;;;;;;;;;5092599;28;20188;-70
2022/04/27 05:02:30;;;;;;;0.70;0.60;;;;;;;;;;5080195;28;20182;-69
2022/04/27 05:05:23;;;;;;;0.70;0.70;;;;;;;;;;5072368;28;20669;-68
2022/04/27 05:08:18;;;;;;;0.60;0.60;;;;;;;;;;5081650;28;20973;-68
2022/04/27 05:11:07;;;;;;;0.70;0.60;;;;;;;;;;5092175;28;20187;-68
2022/04/27 05:13:56;;;;;;;0.70;0.60;;;;;;;;;;5085228;28;20246;-69
2022/04/27 05:16:36;;;;;;;0.60;0.60;;;;;;;;;;5071105;28;20242;-70
2022/04/27 05:19:14;;;;;;;0.65;0.60;;;;;;;;;;5093159;28;20176;-69
2022/04/27 05:22:13;;;;;;;0.70;0.60;;;;;;;;;;5058993;28;20283;-69
2022/04/27 05:25:00;;;;;;;0.70;0.60;;;;;;;;;;5092391;28;20201;-70
2022/04/27 05:27:56;;;;;;;0.60;0.60;;;;;;;;;;5084045;28;20488;-70
2022/04/27 05:34:01;;;;;;;0.65;0.60;;;;;;;;;;5092234;28;20188;-70
2022/04/27 05:36:40;;;;;;;0.63;0.60;;;;;;;;;;5092786;28;20291;-70
2022/04/27 05:39:21;;;;;;;0.70;0.60;;;;;;;;;;5071454;28;20205;-70
2022/04/27 05:42:10;;;;;;;0.60;0.60;;;;;;;;;;5073685;28;20254;-67
2022/04/27 05:45:04;;;;;;;0.70;0.60;;;;;;;;;;5072485;28;20197;-68
2022/04/27 05:47:53;;;;;;;0.60;0.60;;;;;;;;;;5069353;28;20217;-68
2022/04/27 05:50:36;;;;;;;0.70;0.60;;;;;;;;;;5071837;28;20201;-68
2022/04/27 05:53:22;;;;;;;0.60;0.60;;;;;;;;;;5076375;28;20300;-69
2022/04/27 05:56:03;;;;;;;0.70;0.60;;;;;;;;;;5075407;28;20283;-68
2022/04/27 05:58:51;;;;;;;0.60;0.60;;;;;;;;;;5076991;28;20208;-69
2022/04/27 06:01:32;;;;;;;0.60;0.60;;;;;;;;;;5076559;28;20199;-69
2022/04/27 06:04:06;;;;;;;0.60;0.60;;;;;;;;;;5076120;28;20207;-69
2022/04/27 06:06:40;;;;;;;0.70;0.60;;;;;;;;;;5075391;28;20243;-70
2022/04/27 06:09:09;;;;;;;0.70;0.60;;;;;;;;;;5075380;28;20451;-69
2022/04/27 06:12:00;;;;;;;0.70;0.63;;;;;;;;;;5072390;28;20465;-68
2022/04/27 06:14:44;;;;;;;0.60;0.60;;;;;;;;;;5077499;28;20479;-68
2022/04/27 06:17:24;;;;;;;0.70;0.60;;;;;;;;;;5060869;28;20431;-69
2022/04/27 06:19:53;;;;;;;0.60;0.60;;;;;;;;;;5058896;28;20445;-67
2022/04/27 06:22:20;;;;;;;0.70;0.70;;;;;;;;;;5075411;28;20455;-69
2022/04/27 06:24:48;;;;;;;0.97;0.97;;;;;;;;;;5085899;28;20955;-69
2022/04/27 06:27:41;;;;;;;0.63;0.60;;;;;;;;;;5095588;28;20441;-68
2022/04/27 06:30:11;;;;;;;0.70;0.60;;;;;;;;;;5095311;28;20545;-69
2022/04/27 06:32:39;;;;;;;0.70;0.60;;;;;;;;;;5094504;28;20465;-69
2022/04/27 06:35:12;;;;;;;0.70;0.60;;;;;;;;;;5095328;28;20495;-70
2022/04/27 06:37:41;;;;;;;0.70;0.60;;;;;;;;;;5095351;28;20454;-69
2022/04/27 06:40:09;;;;;;;0.70;0.70;;;;;;;;;;5090357;28;20451;-69
2022/04/27 06:42:37;;;;;;;0.60;0.57;;;;;;;;;;5094781;28;20448;-68
2022/04/27 06:45:44;;;;;;;0.60;0.60;;;;;;;;;;5053846;28;20625;-69
2022/04/27 06:48:30;;;;;;;0.70;0.60;;;;;;;;;;5054035;28;20409;-69
2022/04/27 06:51:17;;;;;;;0.70;0.60;;;;;;;;;;5069510;28;20453;-69
2022/04/27 06:54:11;;;;;;;0.67;0.60;;;;;;;;;;5059512;28;20922;-70
2022/04/27 06:56:57;;;;;;;0.70;0.60;;;;;;;;;;5081241;28;20426;-68
2022/04/27 06:59:36;;;;;;;0.70;0.60;;;;;;;;;;5096895;28;20484;-69
2022/04/27 07:02:10;;;;;;;0.70;0.60;;;;;;;;;;5092653;28;20445;-70
2022/04/27 07:04:40;;;;;;;0.70;0.60;;;;;;;;;;5093368;28;20434;-69
2022/04/27 07:07:07;;;;;;;0.70;0.60;;;;;;;;;;5096370;28;20962;-69
2022/04/27 07:09:35;;;;;;;0.70;0.63;;;;;;;;;;5094281;28;20439;-71
2022/04/27 07:12:03;;;;;;;0.70;0.60;;;;;;;;;;5096116;28;20436;-69
2022/04/27 07:14:30;;;;;;;0.70;0.50;;;;;;;;;;5096230;28;20424;-70
2022/04/27 07:16:57;;;;;;;1.80;1.13;;;;;;;;;;5077921;28;20493;-69
2022/04/27 07:19:25;;;;;;;0.70;0.50;;;;;;;;;;5095666;28;20432;-70
2022/04/27 07:21:52;;;;;;;0.70;0.63;;;;;;;;;;5094490;28;20480;-69
2022/04/27 07:24:20;;;;;;;0.80;0.80;;;;;;;;;;5095830;28;20790;-69
2022/04/27 07:26:47;;;;;;;0.70;0.60;;;;;;;;;;5077867;28;20482;-69
2022/04/27 07:29:14;;;;;;;0.70;0.60;;;;;;;;;;5095415;28;20816;-69
2022/04/27 07:31:48;;;;;;;0.70;0.63;;;;;;;;;;5091652;28;20426;-70
2022/04/27 07:34:15;;;;;;;0.70;0.60;;;;;;;;;;5095697;28;20526;-70
2022/04/27 07:36:46;;;;;;;0.70;0.60;;;;;;;;;;5092986;28;20461;-69
2022/04/27 07:39:12;;;;;;;0.70;0.60;;;;;;;;;;5094398;28;20845;-69
2022/04/27 07:41:39;;;;;;;0.70;0.70;;;;;;;;;;5094806;28;20508;-70
2022/04/27 07:44:06;;;;;;;0.80;0.70;;;;;;;;;;5095110;28;20420;-69
2022/04/27 07:46:33;;;;;;;0.70;0.60;;;;;;;;;;5093957;28;20871;-69
2022/04/27 07:49:00;;;;;;;0.70;0.60;;;;;;;;;;5095788;28;20433;-70
2022/04/27 07:51:27;;;;;;;0.70;0.60;;;;;;;;;;5095583;28;20470;-70
2022/04/27 07:53:55;;;;;;;0.70;0.60;;;;;;;;;;5094858;28;20545;-69
2022/04/27 07:56:22;;;;;;;0.70;0.70;;;;;;;;;;5093991;28;20533;-69
2022/04/27 07:58:48;;;;;;;0.70;0.70;;;;;;;;;;5095833;28;20521;-71
2022/04/27 08:01:16;;;;;;;0.70;0.70;;;;;;;;;;5094787;28;20437;-69
2022/04/27 08:03:43;;;;;;;0.73;0.70;;;;;;;;;;5093532;28;20437;-70
2022/04/27 08:06:10;;;;;;;0.80;0.80;;;;;;;;;;5095145;28;20548;-70
2022/04/27 08:08:37;;;;;;;0.97;0.97;;;;;;;;;;5076595;28;20533;-70
2022/04/27 08:11:07;;;;;;;0.70;0.63;;;;;;;;;;5093508;28;20434;-68
2022/04/27 08:13:34;;;;;;;0.80;0.80;;;;;;;;;;5095229;28;20497;-69
2022/04/27 08:16:01;;;;;;;1.00;0.90;;;;;;;;;;5092964;28;20437;-70
2022/04/27 08:18:28;;;;;;;0.80;0.70;;;;;;;;;;5076728;28;20815;-69
2022/04/27 08:23:40;;;;;;;0.70;0.60;;;;;;;;;;5093402;28;20512;-70
2022/04/27 08:26:10;;;;;;;0.80;0.80;;;;;;;;;;5093534;28;20862;-70
2022/04/27 08:28:37;;;;;;;2.33;1.00;;;;;;;;;;5092760;28;20519;-70
2022/04/27 08:31:05;;;;;;;0.80;0.80;;;;;;;;;;5095061;28;20900;-69
2022/04/27 08:33:32;;;;;;;0.80;0.70;;;;;;;;;;5088431;28;20458;-70
2022/04/27 08:35:59;;;;;;;0.80;0.80;;;;;;;;;;5094425;28;20466;-70
2022/04/27 08:38:46;;;;;;;0.77;0.70;;;;;;;;;;5093633;28;20957;-69
2022/04/27 08:41:15;;;;;;;0.80;0.80;;;;;;;;;;5093952;28;20495;-68
2022/04/27 08:43:42;;;;;;;1.20;0.90;;;;;;;;;;5093167;28;20479;-68
2022/04/27 08:46:08;;;;;;;1.63;1.53;;;;;;;;;;5094679;28;20479;-70
2022/04/27 08:48:35;;;;;;;0.80;0.70;;;;;;;;;;5092921;28;20406;-71
2022/04/27 08:51:03;;;;;;;0.70;0.70;;;;;;;;;;5092633;28;20472;-69
2022/04/27 08:53:30;;;;;;;0.70;0.60;;;;;;;;;;5076504;28;20433;-70
2022/04/27 08:55:57;;;;;;;0.70;0.60;;;;;;;;;;5093921;28;20430;-70
2022/04/27 08:58:25;;;;;;;0.70;0.60;;;;;;;;;;5087859;28;20442;-70
2022/04/27 09:01:08;;;;;;;0.70;0.60;;;;;;;;;;5093191;28;20531;-70
2022/04/27 09:03:36;;;;;;;0.70;0.60;;;;;;;;;;5099022;28;20450;-70
2022/04/27 09:06:04;;;;;;;0.70;0.60;;;;;;;;;;5092153;28;20506;-71
2022/04/27 09:08:40;;;;;;;0.80;0.70;;;;;;;;;;5093201;28;20480;-71
2022/04/27 09:11:11;;;;;;;0.70;0.60;;;;;;;;;;5092636;28;20430;-70
2022/04/27 09:13:40;;;;;;;0.90;0.70;;;;;;;;;;5093986;28;20454;-70
2022/04/27 09:16:08;;;;;;;0.73;0.67;;;;;;;;;;5094043;28;20473;-70
2022/04/27 09:21:59;;;;;;;0.70;0.60;;;;;;;;;;5093976;28;20913;-70
2022/04/27 09:24:27;;;;;;;0.80;0.70;;;;;;;;;;5091672;28;20444;-70
2022/04/27 09:26:58;;;;;;;1.23;0.80;;;;;;;;;;5091610;28;20426;-70
2022/04/27 09:29:27;;;;;;;0.70;0.60;;;;;;;;;;5089307;28;20445;-69
2022/04/27 09:31:55;;;;;;;0.97;0.97;;;;;;;;;;5106029;28;20437;-70
2022/04/27 09:34:28;;;;;;;0.73;0.63;;;;;;;;;;5114024;28;20492;-70
2022/04/27 09:36:55;;;;;;;0.70;0.60;;;;;;;;;;5105294;28;20465;-69
2022/04/27 09:39:23;;;;;;;1.00;0.90;;;;;;;;;;5093322;28;20837;-70
2022/04/27 09:41:50;;;;;;;1.33;1.23;;;;;;;;;;5092357;28;20855;-69
2022/04/27 09:44:29;;;;;;;0.83;0.83;;;;;;;;;;5092905;28;20479;-69
2022/04/27 09:46:57;;;;;;;0.80;0.70;;;;;;;;;;5091931;28;20446;-69
2022/04/27 09:49:25;;;;;;;0.80;0.60;;;;;;;;;;5092359;28;20431;-70
2022/04/27 09:51:58;;;;;;;0.73;0.60;;;;;;;;;;5092309;28;20454;-69
2022/04/27 09:54:26;;;;;;;0.80;0.73;;;;;;;;;;5092803;28;20507;-71
2022/04/27 09:56:57;;;;;;;0.87;0.77;;;;;;;;;;5093184;28;20462;-71
2022/04/27 09:59:29;;;;;;;0.70;0.50;;;;;;;;;;5092939;28;20761;-70
2022/04/27 10:01:59;;;;;;;0.70;0.50;;;;;;;;;;5105109;28;20449;-70
2022/04/27 10:04:30;;;;;;;0.80;0.67;;;;;;;;;;5111878;28;20993;-70
2022/04/27 10:06:58;;;;;;;1.17;0.90;;;;;;;;;;5113748;28;20445;-70
2022/04/27 10:09:28;;;;;;;0.70;0.60;;;;;;;;;;5112239;28;20540;-70
2022/04/27 10:12:11;;;;;;;0.87;0.83;;;;;;;;;;5099596;28;20779;-71
2022/04/27 10:14:39;;;;;;;0.70;0.60;;;;;;;;;;5092245;28;20563;-71
2022/04/27 10:17:07;;;;;;;0.90;0.70;;;;;;;;;;5075086;28;20438;-73
2022/04/27 10:19:34;;;;;;;1.17;1.07;;;;;;;;;;5092838;28;20422;-71
2022/04/27 10:22:05;;;;;;;0.70;0.60;;;;;;;;;;5091372;28;20452;-71
2022/04/27 10:24:48;;;;;;;0.70;0.60;;;;;;;;;;5093244;28;20906;-71
2022/04/27 10:27:15;;;;;;;0.80;0.80;;;;;;;;;;5090968;28;20472;-70
2022/04/27 10:29:43;;;;;;;0.90;0.70;;;;;;;;;;5087696;28;20438;-72
2022/04/27 10:32:11;;;;;;;1.00;0.90;;;;;;;;;;5092679;28;20488;-71
2022/04/27 10:34:38;;;;;;;3.37;2.30;;;;;;;;;;5092909;28;20462;-71
2022/04/27 10:37:06;;;;;;;0.80;0.67;;;;;;;;;;5092097;28;20954;-72
2022/04/27 10:39:33;;;;;;;0.80;0.70;;;;;;;;;;5094656;28;20713;-72
2022/04/27 10:42:15;;;;;;;4.30;1.13;;;;;;;;;;5095618;28;20895;-71
2022/04/27 10:45:02;;;;;;;0.80;0.80;;;;;;;;;;5078818;28;20442;-70
2022/04/27 10:47:35;;;;;;;0.70;0.53;;;;;;;;;;5095835;28;20426;-70
2022/04/27 10:50:21;;;;;;;0.80;0.70;;;;;;;;;;5095835;28;20434;-72
2022/04/27 10:52:52;;;;;;;0.70;0.60;;;;;;;;;;5096050;28;20891;-71
2022/04/27 10:55:37;;;;;;;0.73;0.63;;;;;;;;;;5096619;28;20466;-72
2022/04/27 10:58:11;;;;;;;0.83;0.63;;;;;;;;;;5095684;28;20422;-71
2022/04/27 11:00:53;;;;;;;0.83;0.73;;;;;;;;;;5094550;28;20871;-71
2022/04/27 11:03:22;;;;;;;0.70;0.60;;;;;;;;;;5078249;28;20435;-70
2022/04/27 11:05:49;;;;;;;0.70;0.60;;;;;;;;;;5095923;28;20540;-71
2022/04/27 11:08:19;;;;;;;0.80;0.60;;;;;;;;;;5078533;28;20431;-70
2022/04/27 11:10:47;;;;;;;1.00;0.70;;;;;;;;;;5096356;28;20410;-71
2022/04/27 11:13:14;;;;;;;0.70;0.60;;;;;;;;;;5099608;28;20426;-70
2022/04/27 11:15:40;;;;;;;1.47;0.83;;;;;;;;;;5093544;28;20452;-72
2022/04/27 11:18:07;;;;;;;0.80;0.73;;;;;;;;;;5095048;28;20937;-71
2022/04/27 11:20:36;;;;;;;0.77;0.60;;;;;;;;;;5096701;28;20434;-71
2022/04/27 11:23:06;;;;;;;1.03;0.90;;;;;;;;;;5095290;28;20834;-72
2022/04/27 11:25:35;;;;;;;0.90;0.70;;;;;;;;;;5096401;28;20464;-71
2022/04/27 11:28:03;;;;;;;1.80;1.70;;;;;;;;;;5083168;28;20438;-72
2022/04/27 11:30:30;;;;;;;0.70;0.60;;;;;;;;;;5074300;28;20471;-71
2022/04/27 11:32:58;;;;;;;0.70;0.60;;;;;;;;;;5075315;28;20481;-72
2022/04/27 11:35:25;;;;;;;1.17;1.07;;;;;;;;;;5072498;28;20541;-72
2022/04/27 11:37:54;;;;;;;0.70;0.70;;;;;;;;;;5075677;28;20482;-74
2022/04/27 11:40:26;;;;;;;0.80;0.80;;;;;;;;;;5094709;28;20458;-73
2022/04/27 11:42:53;;;;;;;1.57;1.03;;;;;;;;;;5095265;28;20495;-73
2022/04/27 11:45:21;;;;;;;0.93;0.93;;;;;;;;;;5095449;28;20547;-73
2022/04/27 11:47:56;;;;;;;0.70;0.63;;;;;;;;;;5085535;28;20427;-71
2022/04/27 11:50:23;;;;;;;0.80;0.70;;;;;;;;;;5075022;28;20435;-71
2022/04/27 11:52:57;;;;;;;1.73;1.00;;;;;;;;;;5061660;28;20572;-71
2022/04/27 11:55:23;;;;;;;0.80;0.70;;;;;;;;;;5104663;28;20462;-70
2022/04/27 11:57:51;;;;;;;0.70;0.67;;;;;;;;;;5094568;28;20446;-71
2022/04/27 12:00:19;;;;;;;1.47;1.00;;;;;;;;;;5085640;28;20955;-71
2022/04/27 12:02:47;;;;;;;0.70;0.60;;;;;;;;;;5075084;28;20419;-71
2022/04/27 12:05:15;;;;;;;1.03;0.80;;;;;;;;;;5088252;28;20945;-71
2022/04/27 12:07:47;;;;;;;0.80;0.80;;;;;;;;;;5094448;28;20465;-72
2022/04/27 12:10:16;;;;;;;0.77;0.70;;;;;;;;;;5092968;28;20454;-73
2022/04/27 12:12:43;;;;;;;0.90;0.70;;;;;;;;;;5093399;28;20419;-71
2022/04/27 12:15:11;;;;;;;2.70;1.37;;;;;;;;;;5094015;28;20454;-71
2022/04/27 12:17:39;;;;;;;0.70;0.63;;;;;;;;;;5095452;28;20417;-71
2022/04/27 12:20:07;;;;;;;0.90;0.90;;;;;;;;;;5093882;28;20442;-71
2022/04/27 12:22:35;;;;;;;1.50;1.33;;;;;;;;;;5093665;28;21023;-72
2022/04/27 12:25:07;;;;;;;0.77;0.70;;;;;;;;;;5093628;28;20446;-72
2022/04/27 12:27:36;;;;;;;1.17;0.93;;;;;;;;;;5094152;28;20425;-73
2022/04/27 12:30:04;;;;;;;0.80;0.80;;;;;;;;;;5092438;28;20442;-72
2022/04/27 12:32:32;;;;;;;1.20;0.90;;;;;;;;;;5093771;28;20988;-70
2022/04/27 12:37:49;;;;;;;1.73;1.47;;;;;;;;;;5095490;28;20461;-71
2022/04/27 12:40:17;;;;;;;0.70;0.63;;;;;;;;;;5092547;28;20535;-72
2022/04/27 12:43:01;;;;;;;0.70;0.60;;;;;;;;;;5092264;28;20445;-72
2022/04/27 12:45:28;;;;;;;0.90;0.70;;;;;;;;;;5093136;28;20437;-72
2022/04/27 12:47:56;;;;;;;0.83;0.70;;;;;;;;;;5071381;28;20459;-71
2022/04/27 12:50:23;;;;;;;0.70;0.70;;;;;;;;;;5072324;28;20452;-71
2022/04/27 12:52:51;;;;;;;1.00;0.83;;;;;;;;;;5072994;28;20987;-74
2022/04/27 12:55:20;;;;;;;2.07;1.10;;;;;;;;;;5070954;28;20826;-70
2022/04/27 12:57:47;;;;;;;0.80;0.70;;;;;;;;;;5073832;28;20502;-71
2022/04/27 13:00:16;;;;;;;0.80;0.70;;;;;;;;;;5071965;28;20500;-71
2022/04/27 13:02:44;;;;;;;0.70;0.60;;;;;;;;;;5073383;28;20443;-72
2022/04/27 13:05:11;;;;;;;0.70;0.67;;;;;;;;;;5071447;28;20447;-74
2022/04/27 13:07:42;;;;;;;1.00;0.90;;;;;;;;;;5056227;28;20957;-71
2022/04/27 13:12:54;;;;;;;0.70;0.60;;;;;;;;;;5074307;28;20514;-71
2022/04/27 13:15:23;;;;;;;0.70;0.70;;;;;;;;;;5073959;28;20447;-70
2022/04/27 13:17:50;;;;;;;0.77;0.70;;;;;;;;;;5073656;28;20416;-71
2022/04/27 13:20:17;;;;;;;2.70;1.10;;;;;;;;;;5072771;28;20439;-72
2022/04/27 13:22:44;;;;;;;2.20;0.80;;;;;;;;;;5071231;28;20990;-71
2022/04/27 13:25:11;;;;;;;0.90;0.80;;;;;;;;;;5070834;28;20435;-71
2022/04/27 13:27:38;;;;;;;0.80;0.73;;;;;;;;;;5073539;28;20419;-71
2022/04/27 13:30:06;;;;;;;0.70;0.60;;;;;;;;;;5072896;28;20879;-71
2022/04/27 13:32:35;;;;;;;0.70;0.60;;;;;;;;;;5072743;28;20432;-72
2022/04/27 13:35:04;;;;;;;0.70;0.63;;;;;;;;;;5070715;28;20463;-73
2022/04/27 13:37:31;;;;;;;0.73;0.70;;;;;;;;;;5069544;28;20529;-72
2022/04/27 13:39:58;;;;;;;1.00;0.70;;;;;;;;;;5072392;28;20455;-71
2022/04/27 13:42:25;;;;;;;1.00;0.90;;;;;;;;;;5070385;28;20450;-73
2022/04/27 13:44:54;;;;;;;0.80;0.70;;;;;;;;;;5072870;28;20443;-72
2022/04/27 13:47:23;;;;;;;1.93;1.47;;;;;;;;;;5053264;28;20792;-72
2022/04/27 13:49:51;;;;;;;1.03;0.93;;;;;;;;;;5068437;28;20437;-71
2022/04/27 13:52:38;;;;;;;0.73;0.60;;;;;;;;;;5085393;28;20490;-71
2022/04/27 13:55:06;;;;;;;0.80;0.70;;;;;;;;;;5071020;28;20463;-72
2022/04/27 13:57:33;;;;;;;0.80;0.70;;;;;;;;;;5074853;28;20488;-72
2022/04/27 14:00:00;;;;;;;0.80;0.70;;;;;;;;;;5083591;28;20512;-71
2022/04/27 14:02:38;;;;;;;0.80;0.80;;;;;;;;;;5077240;28;20859;-73
2022/04/27 14:05:08;;;;;;;0.70;0.70;;;;;;;;;;5073131;28;20407;-73
2022/04/27 14:07:36;;;;;;;0.77;0.70;;;;;;;;;;5071465;28;20540;-73
2022/04/27 14:10:04;;;;;;;0.90;0.90;;;;;;;;;;5061665;28;20443;-73
2022/04/27 14:15:17;;;;;;;0.97;0.97;;;;;;;;;;5057388;28;20890;-73
2022/04/27 14:20:31;;;;;;;0.97;0.87;;;;;;;;;;5073720;28;20468;-71
2022/04/27 14:22:58;;;;;;;0.80;0.70;;;;;;;;;;5075753;28;20470;-72
2022/04/27 14:25:25;;;;;;;0.90;0.80;;;;;;;;;;5075739;28;20435;-73
2022/04/27 14:27:52;;;;;;;0.77;0.63;;;;;;;;;;5065422;28;21049;-72
2022/04/27 14:30:20;;;;;;;0.70;0.60;;;;;;;;;;5076004;28;20427;-71
2022/04/27 14:32:49;;;;;;;4.00;1.00;;;;;;;;;;5078257;28;20451;-74
2022/04/27 14:35:16;;;;;;;0.70;0.60;;;;;;;;;;5061904;28;20458;-71
2022/04/27 14:37:45;;;;;;;0.80;0.70;;;;;;;;;;5078921;28;20465;-72
2022/04/27 14:40:12;;;;;;;1.30;1.10;;;;;;;;;;5062625;28;20450;-72
2022/04/27 14:42:39;;;;;;;1.33;1.23;;;;;;;;;;5079606;28;20447;-73
2022/04/27 14:45:07;;;;;;;0.70;0.60;;;;;;;;;;5077993;28;20426;-72
2022/04/27 14:47:34;;;;;;;0.80;0.70;;;;;;;;;;5077115;28;20533;-71
2022/04/27 14:50:01;;;;;;;1.00;0.80;;;;;;;;;;5076362;28;20443;-71
2022/04/27 14:52:31;;;;;;;2.03;1.47;;;;;;;;;;5092123;28;20477;-71
2022/04/27 14:54:59;;;;;;;0.70;0.60;;;;;;;;;;5076583;28;20450;-71
2022/04/27 14:57:26;;;;;;;0.80;0.70;;;;;;;;;;5086912;28;20434;-71
2022/04/27 14:59:54;;;;;;;0.80;0.80;;;;;;;;;;5079839;28;20446;-71
2022/04/27 15:02:23;;;;;;;1.20;1.10;;;;;;;;;;5094929;28;20443;-72
2022/04/27 15:04:50;;;;;;;0.90;0.70;;;;;;;;;;5061473;28;20439;-71
2022/04/27 15:07:17;;;;;;;1.83;1.73;;;;;;;;;;5079026;28;20463;-73
2022/04/27 15:09:45;;;;;;;1.73;0.90;;;;;;;;;;5059896;28;20443;-73
2022/04/27 15:12:13;;;;;;;0.80;0.70;;;;;;;;;;5076470;28;20415;-72
2022/04/27 15:14:40;;;;;;;1.30;0.93;;;;;;;;;;5074435;28;20467;-71
2022/04/27 15:17:07;;;;;;;0.90;0.70;;;;;;;;;;5074399;28;20447;-72
2022/04/27 15:19:35;;;;;;;0.80;0.63;;;;;;;;;;5074716;28;20500;-73
2022/04/27 15:24:50;;;;;;;0.80;0.70;;;;;;;;;;5075342;28;20449;-72
2022/04/27 15:27:18;;;;;;;0.80;0.70;;;;;;;;;;5079584;28;20752;-73
2022/04/27 15:29:45;;;;;;;0.80;0.70;;;;;;;;;;5072009;28;20564;-71
2022/04/27 15:32:13;;;;;;;1.23;0.90;;;;;;;;;;5075484;28;20908;-71
2022/04/27 15:34:44;;;;;;;1.07;0.97;;;;;;;;;;5056104;28;20448;-72
2022/04/27 15:37:14;;;;;;;0.80;0.70;;;;;;;;;;5075241;28;20931;-73
2022/04/27 15:39:42;;;;;;;1.33;1.00;;;;;;;;;;5074461;28;20439;-71
2022/04/27 15:42:09;;;;;;;1.17;1.07;;;;;;;;;;5074402;28;20978;-74